sensor_id;sensor_type;location;lat;lon;timestamp;P1;durP1;ratioP1;P2;durP2;ratioP2
71806;SDS011;59655;42.590;23.364;2023-01-09T00:00:38;14.48;;;8.77;;
71806;SDS011;59655;42.590;23.364;2023-01-09T00:03:04;15.57;;;8.70;;
71806;SDS011;59655;42.590;23.364;2023-01-09T00:05:30;16.05;;;8.85;;
71806;SDS011;59655;42.590;23.364;2023-01-09T00:07:55;15.73;;;8.73;;
71806;SDS011;59655;42.590;23.364;2023-01-09T00:10:20;17.58;;;8.90;;
71806;SDS011;59655;42.590;23.364;2023-01-09T00:12:46;13.48;;;7.78;;
71806;SDS011;59655;42.590;23.364;2023-01-09T00:15:11;12.63;;;7.32;;
71806;SDS011;59655;42.590;23.364;2023-01-09T00:17:37;10.68;;;6.03;;
71806;SDS011;59655;42.590;23.364;2023-01-09T00:20:03;15.48;;;8.57;;
71806;SDS011;59655;42.590;23.364;2023-01-09T00:22:30;32.05;;;14.80;;
71806;SDS011;59655;42.590;23.364;2023-01-09T00:24:56;35.30;;;14.80;;
71806;SDS011;59655;42.590;23.364;2023-01-09T00:27:22;38.15;;;24.25;;
71806;SDS011;59655;42.590;23.364;2023-01-09T00:29:47;34.78;;;18.08;;
71806;SDS011;59655;42.590;23.364;2023-01-09T00:32:13;27.80;;;14.00;;
71806;SDS011;59655;42.590;23.364;2023-01-09T00:34:40;31.65;;;17.60;;
71806;SDS011;59655;42.590;23.364;2023-01-09T00:37:07;26.15;;;13.73;;
71806;SDS011;59655;42.590;23.364;2023-01-09T00:39:39;22.83;;;11.40;;
71806;SDS011;59655;42.590;23.364;2023-01-09T00:42:05;21.25;;;11.98;;
71806;SDS011;59655;42.590;23.364;2023-01-09T00:47:07;18.02;;;9.10;;
71806;SDS011;59655;42.590;23.364;2023-01-09T00:49:38;20.33;;;9.98;;
71806;SDS011;59655;42.590;23.364;2023-01-09T00:52:05;16.25;;;9.27;;
71806;SDS011;59655;42.590;23.364;2023-01-09T00:57:00;16.52;;;8.52;;
71806;SDS011;59655;42.590;23.364;2023-01-09T00:59:25;17.73;;;8.60;;
71806;SDS011;59655;42.590;23.364;2023-01-09T01:01:52;17.23;;;8.95;;
71806;SDS011;59655;42.590;23.364;2023-01-09T01:04:17;14.50;;;7.82;;
71806;SDS011;59655;42.590;23.364;2023-01-09T01:07:01;16.10;;;8.25;;
71806;SDS011;59655;42.590;23.364;2023-01-09T01:09:45;13.13;;;6.43;;
71806;SDS011;59655;42.590;23.364;2023-01-09T01:12:10;12.85;;;7.13;;
71806;SDS011;59655;42.590;23.364;2023-01-09T01:14:36;16.80;;;7.93;;
71806;SDS011;59655;42.590;23.364;2023-01-09T01:17:03;15.02;;;7.60;;
71806;SDS011;59655;42.590;23.364;2023-01-09T01:19:29;18.95;;;8.70;;
71806;SDS011;59655;42.590;23.364;2023-01-09T01:21:54;26.50;;;13.07;;
71806;SDS011;59655;42.590;23.364;2023-01-09T01:24:20;33.45;;;14.32;;
71806;SDS011;59655;42.590;23.364;2023-01-09T01:26:45;27.55;;;13.20;;
71806;SDS011;59655;42.590;23.364;2023-01-09T01:29:11;21.30;;;10.23;;
71806;SDS011;59655;42.590;23.364;2023-01-09T01:31:37;24.60;;;12.02;;
71806;SDS011;59655;42.590;23.364;2023-01-09T01:34:02;27.38;;;12.20;;
71806;SDS011;59655;42.590;23.364;2023-01-09T01:36:28;24.08;;;11.55;;
71806;SDS011;59655;42.590;23.364;2023-01-09T01:38:53;28.48;;;14.25;;
71806;SDS011;59655;42.590;23.364;2023-01-09T01:41:18;24.20;;;11.38;;
71806;SDS011;59655;42.590;23.364;2023-01-09T01:46:57;21.77;;;10.52;;
71806;SDS011;59655;42.590;23.364;2023-01-09T01:49:23;16.63;;;8.88;;
71806;SDS011;59655;42.590;23.364;2023-01-09T01:51:49;20.80;;;10.18;;
71806;SDS011;59655;42.590;23.364;2023-01-09T01:54:18;17.58;;;10.63;;
71806;SDS011;59655;42.590;23.364;2023-01-09T01:56:49;19.42;;;11.23;;
71806;SDS011;59655;42.590;23.364;2023-01-09T02:01:56;19.40;;;9.27;;
71806;SDS011;59655;42.590;23.364;2023-01-09T02:06:51;17.23;;;9.77;;
71806;SDS011;59655;42.590;23.364;2023-01-09T02:09:24;18.25;;;9.57;;
71806;SDS011;59655;42.590;23.364;2023-01-09T02:11:51;20.13;;;9.57;;
71806;SDS011;59655;42.590;23.364;2023-01-09T02:14:21;25.40;;;12.45;;
71806;SDS011;59655;42.590;23.364;2023-01-09T02:16:58;25.23;;;11.68;;
71806;SDS011;59655;42.590;23.364;2023-01-09T02:30:43;16.08;;;7.97;;
71806;SDS011;59655;42.590;23.364;2023-01-09T02:38:44;15.75;;;8.10;;
71806;SDS011;59655;42.590;23.364;2023-01-09T02:41:23;17.63;;;8.23;;
71806;SDS011;59655;42.590;23.364;2023-01-09T02:44:14;14.48;;;6.75;;
71806;SDS011;59655;42.590;23.364;2023-01-09T02:46:41;13.57;;;6.82;;
71806;SDS011;59655;42.590;23.364;2023-01-09T02:49:06;19.42;;;10.20;;
71806;SDS011;59655;42.590;23.364;2023-01-09T03:05:27;19.17;;;9.85;;
71806;SDS011;59655;42.590;23.364;2023-01-09T03:07:58;15.63;;;8.65;;
71806;SDS011;59655;42.590;23.364;2023-01-09T03:10:38;18.88;;;9.00;;
71806;SDS011;59655;42.590;23.364;2023-01-09T03:13:11;18.30;;;8.80;;
71806;SDS011;59655;42.590;23.364;2023-01-09T03:15:40;17.23;;;8.73;;
71806;SDS011;59655;42.590;23.364;2023-01-09T03:18:10;16.85;;;8.80;;
71806;SDS011;59655;42.590;23.364;2023-01-09T03:20:38;15.73;;;9.10;;
71806;SDS011;59655;42.590;23.364;2023-01-09T03:23:06;17.42;;;9.45;;
71806;SDS011;59655;42.590;23.364;2023-01-09T03:25:32;17.50;;;7.85;;
71806;SDS011;59655;42.590;23.364;2023-01-09T03:27:59;17.45;;;8.85;;
71806;SDS011;59655;42.590;23.364;2023-01-09T03:30:27;18.38;;;8.68;;
71806;SDS011;59655;42.590;23.364;2023-01-09T03:32:54;17.30;;;9.10;;
71806;SDS011;59655;42.590;23.364;2023-01-09T03:35:20;15.52;;;8.88;;
71806;SDS011;59655;42.590;23.364;2023-01-09T03:37:46;15.95;;;8.32;;
71806;SDS011;59655;42.590;23.364;2023-01-09T03:40:11;18.95;;;10.02;;
71806;SDS011;59655;42.590;23.364;2023-01-09T03:42:37;24.20;;;15.55;;
71806;SDS011;59655;42.590;23.364;2023-01-09T03:45:03;27.27;;;14.73;;
71806;SDS011;59655;42.590;23.364;2023-01-09T03:47:29;22.85;;;15.02;;
71806;SDS011;59655;42.590;23.364;2023-01-09T03:49:54;19.60;;;9.82;;
71806;SDS011;59655;42.590;23.364;2023-01-09T03:52:20;16.45;;;10.20;;
71806;SDS011;59655;42.590;23.364;2023-01-09T03:54:45;16.98;;;10.80;;
71806;SDS011;59655;42.590;23.364;2023-01-09T03:57:10;18.00;;;10.68;;
71806;SDS011;59655;42.590;23.364;2023-01-09T03:59:36;15.95;;;9.45;;
71806;SDS011;59655;42.590;23.364;2023-01-09T04:02:01;15.88;;;7.88;;
71806;SDS011;59655;42.590;23.364;2023-01-09T04:04:27;14.60;;;8.10;;
71806;SDS011;59655;42.590;23.364;2023-01-09T04:06:52;14.90;;;8.35;;
71806;SDS011;59655;42.590;23.364;2023-01-09T04:09:17;14.85;;;7.68;;
71806;SDS011;59655;42.590;23.364;2023-01-09T04:11:43;14.75;;;8.65;;
71806;SDS011;59655;42.590;23.364;2023-01-09T04:14:08;34.95;;;18.23;;
71806;SDS011;59655;42.590;23.364;2023-01-09T04:16:34;39.22;;;21.35;;
71806;SDS011;59655;42.590;23.364;2023-01-09T04:18:59;19.45;;;10.80;;
71806;SDS011;59655;42.590;23.364;2023-01-09T04:21:25;19.05;;;11.05;;
71806;SDS011;59655;42.590;23.364;2023-01-09T04:23:50;22.02;;;11.70;;
71806;SDS011;59655;42.590;23.364;2023-01-09T04:26:15;25.77;;;13.30;;
71806;SDS011;59655;42.590;23.364;2023-01-09T04:28:41;28.40;;;15.57;;
71806;SDS011;59655;42.590;23.364;2023-01-09T04:31:06;30.48;;;16.67;;
71806;SDS011;59655;42.590;23.364;2023-01-09T04:33:32;28.08;;;15.00;;
71806;SDS011;59655;42.590;23.364;2023-01-09T04:35:58;28.33;;;15.15;;
71806;SDS011;59655;42.590;23.364;2023-01-09T04:38:24;23.90;;;13.02;;
71806;SDS011;59655;42.590;23.364;2023-01-09T04:40:51;21.42;;;11.18;;
71806;SDS011;59655;42.590;23.364;2023-01-09T04:43:16;20.00;;;11.70;;
71806;SDS011;59655;42.590;23.364;2023-01-09T04:45:42;18.77;;;10.85;;
71806;SDS011;59655;42.590;23.364;2023-01-09T04:48:07;19.42;;;11.10;;
71806;SDS011;59655;42.590;23.364;2023-01-09T04:50:33;18.58;;;10.02;;
71806;SDS011;59655;42.590;23.364;2023-01-09T04:52:58;21.15;;;11.45;;
71806;SDS011;59655;42.590;23.364;2023-01-09T04:55:23;20.95;;;10.82;;
71806;SDS011;59655;42.590;23.364;2023-01-09T04:57:49;21.83;;;11.07;;
71806;SDS011;59655;42.590;23.364;2023-01-09T05:00:14;28.25;;;14.23;;
71806;SDS011;59655;42.590;23.364;2023-01-09T05:02:40;32.65;;;18.58;;
71806;SDS011;59655;42.590;23.364;2023-01-09T05:05:06;37.55;;;18.70;;
71806;SDS011;59655;42.590;23.364;2023-01-09T05:07:35;33.88;;;17.98;;
71806;SDS011;59655;42.590;23.364;2023-01-09T05:10:00;29.67;;;16.42;;
71806;SDS011;59655;42.590;23.364;2023-01-09T05:12:26;28.23;;;16.10;;
71806;SDS011;59655;42.590;23.364;2023-01-09T05:14:52;30.55;;;17.60;;
71806;SDS011;59655;42.590;23.364;2023-01-09T05:17:17;39.97;;;21.90;;
71806;SDS011;59655;42.590;23.364;2023-01-09T05:19:42;33.38;;;19.48;;
71806;SDS011;59655;42.590;23.364;2023-01-09T05:22:09;29.02;;;16.45;;
71806;SDS011;59655;42.590;23.364;2023-01-09T05:24:38;26.98;;;15.63;;
71806;SDS011;59655;42.590;23.364;2023-01-09T05:27:04;26.30;;;14.57;;
71806;SDS011;59655;42.590;23.364;2023-01-09T05:29:29;31.75;;;17.23;;
71806;SDS011;59655;42.590;23.364;2023-01-09T05:31:55;37.65;;;20.15;;
71806;SDS011;59655;42.590;23.364;2023-01-09T05:34:20;32.10;;;17.95;;
71806;SDS011;59655;42.590;23.364;2023-01-09T05:36:46;35.17;;;19.55;;
71806;SDS011;59655;42.590;23.364;2023-01-09T05:39:12;42.58;;;24.67;;
71806;SDS011;59655;42.590;23.364;2023-01-09T05:41:37;39.72;;;21.35;;
71806;SDS011;59655;42.590;23.364;2023-01-09T05:44:03;48.58;;;25.10;;
71806;SDS011;59655;42.590;23.364;2023-01-09T05:46:29;37.38;;;20.58;;
71806;SDS011;59655;42.590;23.364;2023-01-09T05:48:55;36.15;;;20.90;;
71806;SDS011;59655;42.590;23.364;2023-01-09T05:51:21;35.80;;;17.13;;
71806;SDS011;59655;42.590;23.364;2023-01-09T05:53:46;38.22;;;19.38;;
71806;SDS011;59655;42.590;23.364;2023-01-09T05:56:11;31.13;;;18.58;;
71806;SDS011;59655;42.590;23.364;2023-01-09T05:58:37;31.58;;;15.98;;
71806;SDS011;59655;42.590;23.364;2023-01-09T06:01:03;33.28;;;16.42;;
71806;SDS011;59655;42.590;23.364;2023-01-09T06:03:28;28.77;;;15.90;;
71806;SDS011;59655;42.590;23.364;2023-01-09T06:05:54;38.17;;;20.60;;
71806;SDS011;59655;42.590;23.364;2023-01-09T06:08:19;36.85;;;18.85;;
71806;SDS011;59655;42.590;23.364;2023-01-09T06:10:45;44.00;;;22.40;;
71806;SDS011;59655;42.590;23.364;2023-01-09T06:13:11;47.03;;;24.52;;
71806;SDS011;59655;42.590;23.364;2023-01-09T06:15:36;49.30;;;25.08;;
71806;SDS011;59655;42.590;23.364;2023-01-09T06:18:01;62.22;;;41.95;;
71806;SDS011;59655;42.590;23.364;2023-01-09T06:20:28;51.88;;;27.45;;
71806;SDS011;59655;42.590;23.364;2023-01-09T06:22:54;54.28;;;28.20;;
71806;SDS011;59655;42.590;23.364;2023-01-09T06:25:19;58.60;;;30.35;;
71806;SDS011;59655;42.590;23.364;2023-01-09T06:27:45;57.08;;;33.40;;
71806;SDS011;59655;42.590;23.364;2023-01-09T06:30:10;64.15;;;33.28;;
71806;SDS011;59655;42.590;23.364;2023-01-09T06:32:36;69.07;;;35.20;;
71806;SDS011;59655;42.590;23.364;2023-01-09T06:35:01;71.60;;;37.97;;
71806;SDS011;59655;42.590;23.364;2023-01-09T06:37:27;98.07;;;42.53;;
71806;SDS011;59655;42.590;23.364;2023-01-09T06:39:52;98.35;;;46.13;;
71806;SDS011;59655;42.590;23.364;2023-01-09T06:42:18;94.75;;;44.70;;
71806;SDS011;59655;42.590;23.364;2023-01-09T06:44:44;81.68;;;38.17;;
71806;SDS011;59655;42.590;23.364;2023-01-09T06:47:10;71.65;;;35.83;;
71806;SDS011;59655;42.590;23.364;2023-01-09T06:49:35;72.50;;;38.95;;
71806;SDS011;59655;42.590;23.364;2023-01-09T06:52:01;93.07;;;43.75;;
71806;SDS011;59655;42.590;23.364;2023-01-09T06:56:55;68.88;;;33.45;;
71806;SDS011;59655;42.590;23.364;2023-01-09T06:59:20;55.63;;;28.25;;
71806;SDS011;59655;42.590;23.364;2023-01-09T07:01:45;49.50;;;26.30;;
71806;SDS011;59655;42.590;23.364;2023-01-09T07:04:11;43.08;;;22.35;;
71806;SDS011;59655;42.590;23.364;2023-01-09T07:06:36;35.53;;;19.23;;
71806;SDS011;59655;42.590;23.364;2023-01-09T07:09:02;33.15;;;18.67;;
71806;SDS011;59655;42.590;23.364;2023-01-09T07:11:29;30.35;;;14.98;;
71806;SDS011;59655;42.590;23.364;2023-01-09T07:13:55;28.95;;;14.48;;
71806;SDS011;59655;42.590;23.364;2023-01-09T07:16:20;25.58;;;13.13;;
71806;SDS011;59655;42.590;23.364;2023-01-09T07:18:46;24.98;;;12.57;;
71806;SDS011;59655;42.590;23.364;2023-01-09T07:21:11;20.92;;;11.05;;
71806;SDS011;59655;42.590;23.364;2023-01-09T07:23:37;21.95;;;11.68;;
71806;SDS011;59655;42.590;23.364;2023-01-09T07:26:02;22.63;;;11.48;;
71806;SDS011;59655;42.590;23.364;2023-01-09T07:28:28;23.98;;;12.02;;
71806;SDS011;59655;42.590;23.364;2023-01-09T07:30:53;29.50;;;16.20;;
71806;SDS011;59655;42.590;23.364;2023-01-09T07:33:19;28.45;;;15.38;;
71806;SDS011;59655;42.590;23.364;2023-01-09T07:35:44;28.40;;;15.25;;
71806;SDS011;59655;42.590;23.364;2023-01-09T07:38:10;30.55;;;15.52;;
71806;SDS011;59655;42.590;23.364;2023-01-09T07:40:35;26.50;;;14.00;;
71806;SDS011;59655;42.590;23.364;2023-01-09T07:43:01;25.23;;;13.65;;
71806;SDS011;59655;42.590;23.364;2023-01-09T07:45:26;23.52;;;13.43;;
71806;SDS011;59655;42.590;23.364;2023-01-09T07:47:51;22.27;;;11.25;;
71806;SDS011;59655;42.590;23.364;2023-01-09T07:50:17;22.80;;;12.73;;
71806;SDS011;59655;42.590;23.364;2023-01-09T07:52:44;20.75;;;11.68;;
71806;SDS011;59655;42.590;23.364;2023-01-09T07:55:10;20.55;;;10.88;;
71806;SDS011;59655;42.590;23.364;2023-01-09T07:57:35;20.77;;;11.32;;
71806;SDS011;59655;42.590;23.364;2023-01-09T08:00:01;20.42;;;11.38;;
71806;SDS011;59655;42.590;23.364;2023-01-09T08:02:28;21.85;;;11.50;;
71806;SDS011;59655;42.590;23.364;2023-01-09T08:04:53;21.50;;;10.50;;
71806;SDS011;59655;42.590;23.364;2023-01-09T08:07:19;22.42;;;11.10;;
71806;SDS011;59655;42.590;23.364;2023-01-09T08:09:44;23.00;;;11.80;;
71806;SDS011;59655;42.590;23.364;2023-01-09T08:12:10;21.30;;;10.70;;
71806;SDS011;59655;42.590;23.364;2023-01-09T08:14:35;24.67;;;12.05;;
71806;SDS011;59655;42.590;23.364;2023-01-09T08:17:00;23.30;;;10.68;;
71806;SDS011;59655;42.590;23.364;2023-01-09T08:19:26;24.13;;;11.57;;
71806;SDS011;59655;42.590;23.364;2023-01-09T08:21:52;23.33;;;11.68;;
71806;SDS011;59655;42.590;23.364;2023-01-09T08:24:18;22.25;;;12.00;;
71806;SDS011;59655;42.590;23.364;2023-01-09T08:26:43;22.67;;;11.20;;
71806;SDS011;59655;42.590;23.364;2023-01-09T08:29:09;23.90;;;12.02;;
71806;SDS011;59655;42.590;23.364;2023-01-09T08:31:35;19.98;;;10.82;;
71806;SDS011;59655;42.590;23.364;2023-01-09T08:34:00;21.95;;;10.77;;
71806;SDS011;59655;42.590;23.364;2023-01-09T08:36:26;23.67;;;12.48;;
71806;SDS011;59655;42.590;23.364;2023-01-09T08:38:51;24.27;;;12.73;;
71806;SDS011;59655;42.590;23.364;2023-01-09T08:41:17;23.60;;;11.88;;
71806;SDS011;59655;42.590;23.364;2023-01-09T08:44:01;24.98;;;11.90;;
71806;SDS011;59655;42.590;23.364;2023-01-09T08:46:45;22.02;;;11.85;;
71806;SDS011;59655;42.590;23.364;2023-01-09T08:49:29;25.88;;;13.18;;
71806;SDS011;59655;42.590;23.364;2023-01-09T08:51:54;26.10;;;12.80;;
71806;SDS011;59655;42.590;23.364;2023-01-09T08:54:19;24.77;;;11.77;;
71806;SDS011;59655;42.590;23.364;2023-01-09T08:56:45;25.77;;;12.98;;
71806;SDS011;59655;42.590;23.364;2023-01-09T08:59:12;25.10;;;12.93;;
71806;SDS011;59655;42.590;23.364;2023-01-09T09:01:37;23.60;;;12.32;;
71806;SDS011;59655;42.590;23.364;2023-01-09T09:04:03;26.35;;;13.20;;
71806;SDS011;59655;42.590;23.364;2023-01-09T09:06:29;26.77;;;12.95;;
71806;SDS011;59655;42.590;23.364;2023-01-09T09:08:55;18.70;;;10.95;;
71806;SDS011;59655;42.590;23.364;2023-01-09T09:11:21;25.08;;;12.65;;
71806;SDS011;59655;42.590;23.364;2023-01-09T09:13:46;26.80;;;13.43;;
71806;SDS011;59655;42.590;23.364;2023-01-09T09:16:11;26.25;;;14.07;;
71806;SDS011;59655;42.590;23.364;2023-01-09T09:18:37;26.15;;;13.75;;
71806;SDS011;59655;42.590;23.364;2023-01-09T09:21:02;24.08;;;12.23;;
71806;SDS011;59655;42.590;23.364;2023-01-09T09:23:28;28.58;;;15.45;;
71806;SDS011;59655;42.590;23.364;2023-01-09T09:25:53;22.60;;;13.13;;
71806;SDS011;59655;42.590;23.364;2023-01-09T09:28:18;23.17;;;12.18;;
71806;SDS011;59655;42.590;23.364;2023-01-09T09:30:44;23.00;;;12.77;;
71806;SDS011;59655;42.590;23.364;2023-01-09T09:33:09;24.55;;;12.68;;
71806;SDS011;59655;42.590;23.364;2023-01-09T09:35:35;27.90;;;12.93;;
71806;SDS011;59655;42.590;23.364;2023-01-09T09:38:01;28.55;;;13.85;;
71806;SDS011;59655;42.590;23.364;2023-01-09T09:43:16;29.05;;;14.63;;
71806;SDS011;59655;42.590;23.364;2023-01-09T09:46:15;25.20;;;13.35;;
71806;SDS011;59655;42.590;23.364;2023-01-09T09:48:55;25.70;;;13.95;;
71806;SDS011;59655;42.590;23.364;2023-01-09T09:51:49;26.23;;;13.52;;
71806;SDS011;59655;42.590;23.364;2023-01-09T09:54:39;22.10;;;11.07;;
71806;SDS011;59655;42.590;23.364;2023-01-09T09:57:09;27.45;;;13.00;;
71806;SDS011;59655;42.590;23.364;2023-01-09T09:59:40;24.02;;;12.43;;
71806;SDS011;59655;42.590;23.364;2023-01-09T10:02:20;23.70;;;12.85;;
71806;SDS011;59655;42.590;23.364;2023-01-09T10:04:51;24.48;;;12.38;;
71806;SDS011;59655;42.590;23.364;2023-01-09T10:07:27;28.48;;;13.57;;
71806;SDS011;59655;42.590;23.364;2023-01-09T10:10:02;26.52;;;13.27;;
71806;SDS011;59655;42.590;23.364;2023-01-09T10:12:41;27.35;;;14.25;;
71806;SDS011;59655;42.590;23.364;2023-01-09T10:15:16;25.58;;;13.25;;
71806;SDS011;59655;42.590;23.364;2023-01-09T10:20:33;25.70;;;13.05;;
71806;SDS011;59655;42.590;23.364;2023-01-09T10:36:53;31.60;;;16.70;;
71806;SDS011;59655;42.590;23.364;2023-01-09T10:39:25;36.75;;;16.75;;
71806;SDS011;59655;42.590;23.364;2023-01-09T10:45:23;35.17;;;16.85;;
71806;SDS011;59655;42.590;23.364;2023-01-09T10:47:48;37.13;;;17.50;;
71806;SDS011;59655;42.590;23.364;2023-01-09T10:50:18;39.42;;;18.63;;
71806;SDS011;59655;42.590;23.364;2023-01-09T10:52:44;37.13;;;17.98;;
71806;SDS011;59655;42.590;23.364;2023-01-09T10:55:16;40.17;;;17.40;;
71806;SDS011;59655;42.590;23.364;2023-01-09T10:57:44;45.92;;;17.95;;
71806;SDS011;59655;42.590;23.364;2023-01-09T11:00:15;37.88;;;16.38;;
71806;SDS011;59655;42.590;23.364;2023-01-09T11:02:45;36.88;;;17.60;;
71806;SDS011;59655;42.590;23.364;2023-01-09T11:05:12;37.50;;;17.77;;
71806;SDS011;59655;42.590;23.364;2023-01-09T11:07:41;40.45;;;17.95;;
71806;SDS011;59655;42.590;23.364;2023-01-09T11:12:36;31.15;;;15.40;;
71806;SDS011;59655;42.590;23.364;2023-01-09T11:17:50;32.20;;;15.05;;
71806;SDS011;59655;42.590;23.364;2023-01-09T11:20:23;28.30;;;13.57;;
71806;SDS011;59655;42.590;23.364;2023-01-09T11:22:51;30.15;;;14.85;;
71806;SDS011;59655;42.590;23.364;2023-01-09T11:30:26;29.77;;;14.25;;
71806;SDS011;59655;42.590;23.364;2023-01-09T11:32:56;39.85;;;14.32;;
71806;SDS011;59655;42.590;23.364;2023-01-09T11:35:27;31.25;;;14.45;;
71806;SDS011;59655;42.590;23.364;2023-01-09T11:38:18;42.60;;;14.23;;
71806;SDS011;59655;42.590;23.364;2023-01-09T11:40:50;28.70;;;13.57;;
71806;SDS011;59655;42.590;23.364;2023-01-09T11:43:17;35.83;;;14.05;;
71806;SDS011;59655;42.590;23.364;2023-01-09T11:45:49;24.45;;;12.48;;
71806;SDS011;59655;42.590;23.364;2023-01-09T11:51:21;27.40;;;13.95;;
71806;SDS011;59655;42.590;23.364;2023-01-09T11:54:18;28.80;;;13.30;;
71806;SDS011;59655;42.590;23.364;2023-01-09T11:56:49;29.13;;;13.43;;
71806;SDS011;59655;42.590;23.364;2023-01-09T11:59:19;29.55;;;13.23;;
71806;SDS011;59655;42.590;23.364;2023-01-09T12:04:40;27.98;;;12.55;;
71806;SDS011;59655;42.590;23.364;2023-01-09T12:07:34;28.65;;;14.02;;
71806;SDS011;59655;42.590;23.364;2023-01-09T12:10:10;26.85;;;12.30;;
71806;SDS011;59655;42.590;23.364;2023-01-09T12:16:09;29.85;;;14.88;;
71806;SDS011;59655;42.590;23.364;2023-01-09T12:24:32;26.92;;;12.95;;
71806;SDS011;59655;42.590;23.364;2023-01-09T12:35:41;27.30;;;15.65;;
71806;SDS011;59655;42.590;23.364;2023-01-09T12:46:24;29.15;;;14.48;;
71806;SDS011;59655;42.590;23.364;2023-01-09T12:51:59;28.65;;;13.90;;
71806;SDS011;59655;42.590;23.364;2023-01-09T12:54:35;28.13;;;13.35;;
71806;SDS011;59655;42.590;23.364;2023-01-09T12:57:06;25.95;;;13.55;;
71806;SDS011;59655;42.590;23.364;2023-01-09T13:08:08;27.10;;;13.05;;
71806;SDS011;59655;42.590;23.364;2023-01-09T13:10:38;27.63;;;14.63;;
71806;SDS011;59655;42.590;23.364;2023-01-09T13:13:19;68.60;;;23.70;;
71806;SDS011;59655;42.590;23.364;2023-01-09T13:15:52;29.58;;;13.65;;
71806;SDS011;59655;42.590;23.364;2023-01-09T13:21:11;34.85;;;17.35;;
71806;SDS011;59655;42.590;23.364;2023-01-09T13:23:51;28.58;;;12.80;;
71806;SDS011;59655;42.590;23.364;2023-01-09T13:26:31;78.18;;;21.77;;
71806;SDS011;59655;42.590;23.364;2023-01-09T13:29:34;29.73;;;12.55;;
71806;SDS011;59655;42.590;23.364;2023-01-09T13:34:49;31.65;;;14.70;;
71806;SDS011;59655;42.590;23.364;2023-01-09T13:37:24;26.92;;;11.93;;
71806;SDS011;59655;42.590;23.364;2023-01-09T13:39:56;42.80;;;13.18;;
71806;SDS011;59655;42.590;23.364;2023-01-09T13:42:23;26.63;;;12.68;;
71806;SDS011;59655;42.590;23.364;2023-01-09T13:47:41;38.85;;;18.63;;
71806;SDS011;59655;42.590;23.364;2023-01-09T13:52:36;49.25;;;18.35;;
71806;SDS011;59655;42.590;23.364;2023-01-09T14:08:01;57.22;;;22.77;;
71806;SDS011;59655;42.590;23.364;2023-01-09T14:12:56;21.85;;;10.57;;
71806;SDS011;59655;42.590;23.364;2023-01-09T14:15:30;100.28;;;33.55;;
71806;SDS011;59655;42.590;23.364;2023-01-09T14:18:01;30.73;;;12.77;;
71806;SDS011;59655;42.590;23.364;2023-01-09T14:21:00;22.70;;;11.00;;
71806;SDS011;59655;42.590;23.364;2023-01-09T14:26:22;21.83;;;10.55;;
71806;SDS011;59655;42.590;23.364;2023-01-09T14:31:52;28.15;;;15.65;;
71806;SDS011;59655;42.590;23.364;2023-01-09T14:34:27;28.52;;;15.45;;
71806;SDS011;59655;42.590;23.364;2023-01-09T14:36:59;29.55;;;13.82;;
71806;SDS011;59655;42.590;23.364;2023-01-09T14:39:27;24.63;;;12.65;;
71806;SDS011;59655;42.590;23.364;2023-01-09T14:41:57;21.42;;;10.65;;
71806;SDS011;59655;42.590;23.364;2023-01-09T14:50:17;29.15;;;12.30;;
71806;SDS011;59655;42.590;23.364;2023-01-09T14:53:10;25.15;;;10.77;;
71806;SDS011;59655;42.590;23.364;2023-01-09T14:55:59;21.80;;;9.18;;
71806;SDS011;59655;42.590;23.364;2023-01-09T15:09:13;26.77;;;13.05;;
71806;SDS011;59655;42.590;23.364;2023-01-09T15:11:49;25.70;;;11.95;;
71806;SDS011;59655;42.590;23.364;2023-01-09T15:14:25;26.65;;;12.88;;
71806;SDS011;59655;42.590;23.364;2023-01-09T15:17:03;26.10;;;12.50;;
71806;SDS011;59655;42.590;23.364;2023-01-09T15:19:30;30.52;;;14.70;;
71806;SDS011;59655;42.590;23.364;2023-01-09T15:21:58;26.08;;;13.20;;
71806;SDS011;59655;42.590;23.364;2023-01-09T15:24:29;29.80;;;14.40;;
71806;SDS011;59655;42.590;23.364;2023-01-09T15:26:59;29.52;;;12.88;;
71806;SDS011;59655;42.590;23.364;2023-01-09T15:29:34;28.58;;;13.10;;
71806;SDS011;59655;42.590;23.364;2023-01-09T15:32:13;28.48;;;13.30;;
71806;SDS011;59655;42.590;23.364;2023-01-09T15:34:44;32.30;;;12.95;;
71806;SDS011;59655;42.590;23.364;2023-01-09T15:39:50;30.88;;;14.65;;
71806;SDS011;59655;42.590;23.364;2023-01-09T15:42:21;30.70;;;15.25;;
71806;SDS011;59655;42.590;23.364;2023-01-09T15:45:12;36.78;;;16.88;;
71806;SDS011;59655;42.590;23.364;2023-01-09T15:47:42;34.90;;;16.40;;
71806;SDS011;59655;42.590;23.364;2023-01-09T15:50:11;35.00;;;16.73;;
71806;SDS011;59655;42.590;23.364;2023-01-09T15:52:38;34.55;;;16.83;;
71806;SDS011;59655;42.590;23.364;2023-01-09T15:55:14;38.38;;;16.67;;
71806;SDS011;59655;42.590;23.364;2023-01-09T15:57:51;40.28;;;17.88;;
71806;SDS011;59655;42.590;23.364;2023-01-09T16:00:30;38.75;;;17.80;;
71806;SDS011;59655;42.590;23.364;2023-01-09T16:03:07;35.58;;;15.82;;
71806;SDS011;59655;42.590;23.364;2023-01-09T16:05:47;33.97;;;16.40;;
71806;SDS011;59655;42.590;23.364;2023-01-09T16:08:19;35.47;;;15.13;;
71806;SDS011;59655;42.590;23.364;2023-01-09T16:10:57;33.58;;;15.25;;
71806;SDS011;59655;42.590;23.364;2023-01-09T16:13:29;31.15;;;15.68;;
71806;SDS011;59655;42.590;23.364;2023-01-09T16:15:56;54.75;;;28.80;;
71806;SDS011;59655;42.590;23.364;2023-01-09T16:18:28;55.17;;;26.83;;
71806;SDS011;59655;42.590;23.364;2023-01-09T16:23:35;55.35;;;28.08;;
71806;SDS011;59655;42.590;23.364;2023-01-09T16:26:05;60.72;;;30.67;;
71806;SDS011;59655;42.590;23.364;2023-01-09T16:28:36;39.90;;;24.20;;
71806;SDS011;59655;42.590;23.364;2023-01-09T16:31:06;32.13;;;16.05;;
71806;SDS011;59655;42.590;23.364;2023-01-09T16:33:46;33.42;;;16.05;;
71806;SDS011;59655;42.590;23.364;2023-01-09T16:36:16;41.22;;;19.30;;
71806;SDS011;59655;42.590;23.364;2023-01-09T16:38:42;39.33;;;20.77;;
71806;SDS011;59655;42.590;23.364;2023-01-09T16:41:15;66.63;;;31.08;;
71806;SDS011;59655;42.590;23.364;2023-01-09T16:44:01;111.13;;;49.88;;
71806;SDS011;59655;42.590;23.364;2023-01-09T16:46:31;155.73;;;65.22;;
71806;SDS011;59655;42.590;23.364;2023-01-09T16:48:58;73.00;;;31.50;;
71806;SDS011;59655;42.590;23.364;2023-01-09T16:51:23;61.22;;;28.17;;
71806;SDS011;59655;42.590;23.364;2023-01-09T16:53:49;100.20;;;45.13;;
71806;SDS011;59655;42.590;23.364;2023-01-09T16:56:16;68.70;;;32.47;;
71806;SDS011;59655;42.590;23.364;2023-01-09T16:58:42;49.13;;;24.90;;
71806;SDS011;59655;42.590;23.364;2023-01-09T17:01:08;56.67;;;26.00;;
71806;SDS011;59655;42.590;23.364;2023-01-09T17:03:34;41.97;;;19.95;;
71806;SDS011;59655;42.590;23.364;2023-01-09T17:06:02;40.50;;;23.02;;
71806;SDS011;59655;42.590;23.364;2023-01-09T17:08:32;41.53;;;20.95;;
71806;SDS011;59655;42.590;23.364;2023-01-09T17:11:00;44.63;;;20.73;;
71806;SDS011;59655;42.590;23.364;2023-01-09T17:13:26;35.67;;;17.20;;
71806;SDS011;59655;42.590;23.364;2023-01-09T17:15:55;23.15;;;12.10;;
71806;SDS011;59655;42.590;23.364;2023-01-09T17:18:22;40.92;;;17.95;;